createdAt,value
2023-02-01T00:01:27.822Z,34.95
2023-02-01T00:03:55.758Z,34.22
2023-02-01T00:06:24.146Z,36.67
2023-02-01T00:08:55.977Z,34.50
2023-02-01T00:11:25.405Z,36.00
2023-02-01T00:13:53.640Z,35.88
2023-02-01T00:16:25.294Z,35.15
2023-02-01T00:18:59.413Z,35.35
2023-02-01T00:21:28.584Z,35.15
2023-02-01T00:23:56.843Z,37.03
2023-02-01T00:26:46.585Z,38.95
2023-02-01T00:29:18.178Z,35.60
2023-02-01T00:31:47.231Z,36.83
2023-02-01T00:34:17.689Z,35.08
2023-02-01T00:36:46.306Z,37.08
2023-02-01T00:39:14.203Z,36.40
2023-02-01T00:41:42.404Z,34.72
2023-02-01T00:44:10.531Z,35.35
2023-02-01T00:46:40.020Z,34.08
2023-02-01T00:49:09.403Z,32.03
2023-02-01T00:51:37.730Z,33.95
2023-02-01T00:54:05.644Z,33.60
2023-02-01T00:56:33.946Z,34.47
2023-02-01T00:59:01.844Z,33.90
2023-02-01T01:01:30.518Z,33.03
2023-02-01T01:04:00.778Z,33.47
2023-02-01T01:06:31.657Z,34.88
2023-02-01T01:09:02.274Z,34.83
2023-02-01T01:11:33.321Z,33.63
2023-02-01T01:14:01.476Z,34.13
2023-02-01T01:16:32.677Z,33.17
2023-02-01T01:19:01.227Z,33.90
2023-02-01T01:21:30.265Z,31.83
2023-02-01T01:23:58.305Z,33.20
2023-02-01T01:26:29.308Z,33.13
2023-02-01T01:28:59.666Z,37.13
2023-02-01T01:31:28.303Z,36.85
2023-02-01T01:33:58.820Z,36.30
2023-02-01T01:36:28.251Z,37.08
2023-02-01T01:38:56.209Z,36.70
2023-02-01T01:41:27.576Z,34.15
2023-02-01T01:44:02.342Z,31.15
2023-02-01T01:49:25.291Z,31.35
2023-02-01T01:52:00.786Z,32.22
2023-02-01T01:54:42.346Z,30.67
2023-02-01T01:57:15.943Z,29.13
2023-02-01T01:59:48.344Z,31.33
2023-02-01T02:02:17.826Z,30.67
2023-02-01T02:04:47.437Z,32.72
2023-02-01T02:07:27.756Z,30.20
2023-02-01T02:10:00.857Z,29.17
2023-02-01T02:12:30.130Z,29.23
2023-02-01T02:14:58.131Z,31.88
2023-02-01T02:17:57.686Z,29.67
2023-02-01T02:20:50.422Z,29.90
2023-02-01T02:23:24.807Z,31.23
2023-02-01T02:26:10.753Z,27.27
2023-02-01T02:29:08.991Z,27.73
2023-02-01T02:32:16.664Z,28.38
2023-02-01T02:34:53.570Z,29.02
2023-02-01T02:37:39.562Z,25.70
2023-02-01T02:40:17.513Z,25.35
2023-02-01T02:43:16.253Z,25.63
2023-02-01T02:46:11.022Z,27.33
2023-02-01T02:48:43.452Z,26.38
2023-02-01T02:51:33.288Z,24.33
2023-02-01T02:54:26.875Z,26.58
2023-02-01T02:57:16.826Z,25.70
2023-02-01T03:00:07.120Z,24.48
2023-02-01T03:02:54.714Z,25.33
2023-02-01T03:05:22.916Z,27.15
2023-02-01T03:11:11.854Z,27.67
2023-02-01T03:13:51.181Z,31.13
2023-02-01T03:16:33.186Z,27.55
2023-02-01T03:19:25.319Z,26.77
2023-02-01T03:22:16.675Z,29.13
2023-02-01T03:24:53.057Z,29.23
2023-02-01T03:27:37.289Z,28.05
2023-02-01T03:30:09.336Z,27.52
2023-02-01T03:33:00.430Z,27.98
2023-02-01T03:36:00.200Z,29.42
2023-02-01T03:38:31.775Z,27.90
2023-02-01T03:41:17.312Z,29.20
2023-02-01T03:44:04.296Z,27.35
2023-02-01T03:46:38.976Z,28.58
2023-02-01T03:49:11.879Z,29.02
2023-02-01T03:51:42.323Z,28.77
2023-02-01T03:54:16.350Z,29.00
2023-02-01T03:56:47.529Z,29.55
2023-02-01T03:59:16.488Z,27.67
2023-02-01T04:01:44.434Z,26.73
2023-02-01T04:04:21.196Z,27.40
2023-02-01T04:06:53.318Z,27.27
2023-02-01T04:09:22.759Z,27.92
2023-02-01T04:11:50.809Z,26.65
2023-02-01T04:14:19.227Z,27.35
2023-02-01T04:16:47.360Z,26.90
2023-02-01T04:19:16.317Z,27.30
2023-02-01T04:21:44.435Z,30.55
2023-02-01T04:24:12.940Z,27.42
2023-02-01T04:26:41.023Z,27.90
2023-02-01T04:29:11.395Z,28.02
2023-02-01T04:31:39.622Z,27.15
2023-02-01T04:34:08.209Z,28.08
2023-02-01T04:36:36.298Z,28.10
2023-02-01T04:39:04.785Z,31.30
2023-02-01T04:41:32.788Z,30.23
2023-02-01T04:44:01.161Z,29.02
2023-02-01T04:46:29.154Z,29.75
2023-02-01T04:48:58.653Z,28.35
2023-02-01T04:51:26.627Z,29.17
2023-02-01T04:53:57.185Z,28.40
2023-02-01T04:56:25.138Z,29.23
2023-02-01T04:58:54.269Z,28.73
2023-02-01T05:01:22.405Z,30.50
2023-02-01T05:03:50.747Z,26.45
2023-02-01T05:06:18.806Z,28.52
2023-02-01T05:08:47.170Z,28.65
2023-02-01T05:11:38.410Z,25.63
2023-02-01T05:14:08.253Z,28.77
2023-02-01T05:16:36.647Z,28.45
2023-02-01T05:19:04.988Z,27.35
2023-02-01T05:21:32.948Z,29.10
2023-02-01T05:24:21.780Z,30.52
2023-02-01T05:26:50.773Z,28.35
2023-02-01T05:29:19.598Z,30.17
2023-02-01T05:31:48.445Z,31.08
2023-02-01T05:34:17.177Z,29.25
2023-02-01T05:36:45.294Z,26.13
2023-02-01T05:39:15.157Z,32.33
2023-02-01T05:41:43.188Z,28.60
2023-02-01T05:44:12.308Z,30.90
2023-02-01T05:46:40.395Z,28.80
2023-02-01T05:49:09.477Z,29.58
2023-02-01T05:51:37.406Z,29.42
2023-02-01T05:54:05.847Z,29.55
2023-02-01T05:56:33.786Z,29.58
2023-02-01T05:59:05.137Z,27.33
2023-02-01T06:01:33.106Z,33.95
2023-02-01T06:04:01.404Z,34.38
2023-02-01T06:06:29.671Z,32.42
2023-02-01T06:08:58.199Z,27.85
2023-02-01T06:11:33.500Z,26.48
2023-02-01T06:14:02.146Z,26.80
2023-02-01T06:16:30.185Z,27.40
2023-02-01T06:18:59.382Z,28.92
2023-02-01T06:21:27.354Z,25.33
2023-02-01T06:23:56.050Z,24.25
2023-02-01T06:26:24.144Z,23.45
2023-02-01T06:28:52.583Z,24.80
2023-02-01T06:31:20.678Z,31.75
2023-02-01T06:33:50.757Z,24.05
2023-02-01T06:36:19.949Z,22.95
2023-02-01T06:38:49.019Z,23.75
2023-02-01T06:41:17.839Z,24.83
2023-02-01T06:43:47.540Z,25.80
2023-02-01T06:46:16.173Z,25.08
2023-02-01T06:48:47.218Z,24.95
2023-02-01T06:51:33.281Z,23.40
2023-02-01T06:54:02.154Z,24.08
2023-02-01T06:56:30.351Z,24.00
2023-02-01T06:58:58.709Z,25.30
2023-02-01T07:01:26.827Z,24.40
2023-02-01T07:03:55.237Z,24.25
2023-02-01T07:06:23.855Z,23.67
2023-02-01T07:08:52.197Z,22.50
2023-02-01T07:11:20.331Z,24.98
2023-02-01T07:13:49.336Z,21.42
2023-02-01T07:16:20.308Z,21.67
2023-02-01T07:18:49.284Z,20.15
2023-02-01T07:21:17.168Z,21.77
2023-02-01T07:23:46.816Z,24.08
2023-02-01T07:26:16.132Z,19.92
2023-02-01T07:28:44.427Z,22.60
2023-02-01T07:31:20.068Z,20.73
2023-02-01T07:33:49.828Z,20.65
2023-02-01T07:36:19.063Z,20.40
2023-02-01T07:38:53.690Z,20.30
2023-02-01T07:41:23.327Z,20.27
2023-02-01T07:43:54.453Z,20.05
2023-02-01T07:46:22.750Z,21.02
2023-02-01T07:48:51.076Z,19.65
2023-02-01T07:51:19.307Z,19.30
2023-02-01T07:53:47.783Z,18.25
2023-02-01T07:56:18.700Z,16.70
2023-02-01T07:59:01.109Z,18.52
2023-02-01T08:01:30.506Z,18.38
2023-02-01T08:04:00.557Z,18.15
2023-02-01T08:06:32.546Z,20.02
2023-02-01T08:09:01.012Z,18.92
2023-02-01T08:11:29.170Z,18.15
2023-02-01T08:13:58.949Z,20.30
2023-02-01T08:16:27.144Z,19.75
2023-02-01T08:18:55.977Z,23.80
2023-02-01T08:21:30.308Z,22.52
2023-02-01T08:23:59.055Z,22.35
2023-02-01T08:26:27.705Z,23.58
2023-02-01T08:28:59.236Z,24.13
2023-02-01T08:31:29.914Z,25.05
2023-02-01T08:34:01.054Z,25.42
2023-02-01T08:36:31.790Z,25.73
2023-02-01T08:39:01.802Z,27.58
2023-02-01T08:41:31.294Z,27.58
2023-02-01T08:43:59.657Z,27.20
2023-02-01T08:46:28.715Z,29.20
2023-02-01T08:48:58.859Z,31.38
2023-02-01T08:51:27.172Z,31.75
2023-02-01T08:53:55.376Z,33.42
2023-02-01T08:56:23.451Z,34.92
2023-02-01T08:58:51.760Z,32.38
2023-02-01T09:01:19.882Z,35.15
2023-02-01T09:03:49.228Z,35.85
2023-02-01T09:06:17.557Z,32.90
2023-02-01T09:08:46.081Z,34.38
2023-02-01T09:11:18.499Z,35.95
2023-02-01T09:13:48.233Z,38.40
2023-02-01T09:16:16.894Z,37.17
2023-02-01T09:18:56.098Z,40.47
2023-02-01T09:21:30.647Z,41.38
2023-02-01T09:24:00.140Z,40.25
2023-02-01T09:26:32.969Z,39.00
2023-02-01T09:29:02.247Z,39.97
2023-02-01T09:31:31.726Z,41.58
2023-02-01T09:34:00.263Z,47.08
2023-02-01T09:36:30.218Z,43.63
2023-02-01T09:39:01.133Z,45.38
2023-02-01T09:41:39.109Z,48.95
2023-02-01T09:44:19.738Z,50.53
2023-02-01T09:46:48.442Z,46.95
2023-02-01T09:49:23.618Z,46.47
2023-02-01T09:51:54.445Z,53.65
2023-02-01T09:54:42.662Z,51.22
2023-02-01T09:57:39.629Z,47.90
2023-02-01T10:00:19.611Z,45.25
2023-02-01T10:02:47.737Z,45.83
2023-02-01T10:05:21.878Z,46.58
2023-02-01T10:10:41.008Z,48.35
2023-02-01T10:13:14.965Z,50.42
2023-02-01T10:16:01.572Z,51.35
2023-02-01T10:18:40.548Z,49.45
2023-02-01T10:21:27.677Z,49.88
2023-02-01T10:24:15.941Z,49.42
2023-02-01T10:27:11.767Z,52.28
2023-02-01T10:29:43.439Z,52.38
2023-02-01T10:32:16.340Z,52.63
2023-02-01T10:34:50.020Z,53.55
2023-02-01T10:37:33.100Z,56.05
2023-02-01T10:40:15.978Z,56.53
2023-02-01T10:42:45.598Z,56.20
2023-02-01T10:45:22.987Z,56.50
2023-02-01T10:47:53.811Z,58.28
2023-02-01T10:51:00.724Z,57.10
2023-02-01T10:53:44.097Z,53.10
2023-02-01T10:56:14.393Z,54.53
2023-02-01T10:58:48.137Z,54.83
2023-02-01T11:01:22.600Z,53.20
2023-02-01T11:04:05.600Z,57.20
2023-02-01T11:06:49.079Z,51.28
2023-02-01T11:09:25.915Z,51.92
2023-02-01T11:11:59.788Z,52.33
2023-02-01T11:14:36.612Z,52.00
2023-02-01T11:17:18.745Z,54.08
2023-02-01T11:20:01.133Z,55.92
2023-02-01T11:22:31.328Z,52.58
2023-02-01T11:25:02.782Z,53.47
2023-02-01T11:27:34.743Z,53.78
2023-02-01T11:30:07.289Z,56.33
2023-02-01T11:32:35.612Z,54.65
2023-02-01T11:35:07.725Z,52.45
2023-02-01T11:37:40.971Z,53.65
2023-02-01T11:40:18.632Z,51.33
2023-02-01T11:43:01.693Z,59.08
2023-02-01T11:45:32.264Z,55.55
2023-02-01T11:48:01.691Z,52.85
2023-02-01T11:50:53.006Z,52.97
2023-02-01T11:53:28.947Z,56.22
2023-02-01T11:56:03.277Z,53.47
2023-02-01T11:58:52.247Z,54.53
2023-02-01T12:01:43.788Z,53.13
2023-02-01T12:04:33.302Z,54.03
2023-02-01T12:07:22.641Z,55.45
2023-02-01T12:09:57.846Z,53.25
2023-02-01T12:12:32.598Z,53.65
2023-02-01T12:15:18.590Z,54.38
2023-02-01T12:18:07.719Z,52.92
2023-02-01T12:21:00.828Z,52.00
2023-02-01T12:24:06.228Z,51.80
2023-02-01T12:26:45.711Z,54.03
2023-02-01T12:29:44.600Z,53.75
2023-02-01T12:32:34.688Z,53.60
2023-02-01T12:35:21.761Z,51.67
2023-02-01T12:37:57.160Z,52.78
2023-02-01T12:40:37.436Z,53.53
2023-02-01T12:43:34.210Z,55.33
2023-02-01T12:46:14.697Z,54.35
2023-02-01T12:48:54.828Z,52.42
2023-02-01T12:51:36.441Z,52.83
2023-02-01T12:54:13.257Z,51.78
2023-02-01T12:57:04.279Z,54.80
2023-02-01T12:59:57.069Z,52.75
2023-02-01T13:03:03.941Z,51.63
2023-02-01T13:05:53.697Z,51.90
2023-02-01T13:08:47.251Z,52.25
2023-02-01T13:11:32.581Z,52.85
2023-02-01T13:14:25.652Z,53.92
2023-02-01T13:17:04.779Z,50.55
2023-02-01T13:20:00.318Z,50.70
2023-02-01T13:22:49.013Z,54.08
2023-02-01T13:25:28.771Z,51.40
2023-02-01T13:28:03.660Z,53.85
2023-02-01T13:30:55.695Z,51.63
2023-02-01T13:33:55.302Z,49.35
2023-02-01T13:36:37.250Z,50.90
2023-02-01T13:39:14.072Z,49.85
2023-02-01T13:42:17.507Z,49.60
2023-02-01T13:44:57.978Z,50.25
2023-02-01T13:47:28.764Z,49.22
2023-02-01T13:50:01.494Z,51.50
2023-02-01T13:52:46.199Z,49.30
2023-02-01T13:55:14.136Z,51.92
2023-02-01T13:57:47.731Z,51.40
2023-02-01T14:00:31.830Z,49.40
2023-02-01T14:03:03.505Z,50.53
2023-02-01T14:05:31.705Z,48.88
2023-02-01T14:08:14.792Z,50.92
2023-02-01T14:11:01.325Z,49.65
2023-02-01T14:13:31.283Z,51.92
2023-02-01T14:16:05.239Z,51.63
2023-02-01T14:18:36.501Z,50.33
2023-02-01T14:21:22.965Z,51.03
2023-02-01T14:23:55.171Z,51.70
2023-02-01T14:26:29.431Z,49.35
2023-02-01T14:29:20.040Z,49.40
2023-02-01T14:31:51.409Z,49.20
2023-02-01T14:34:28.894Z,50.55
2023-02-01T14:37:10.089Z,50.58
2023-02-01T14:39:47.928Z,48.20
2023-02-01T14:42:30.874Z,49.22
2023-02-01T14:45:24.616Z,50.08
2023-02-01T14:48:08.223Z,49.60
2023-02-01T14:50:42.040Z,48.63
2023-02-01T14:53:10.057Z,48.58
2023-02-01T14:55:44.307Z,50.38
2023-02-01T14:58:37.650Z,49.22
2023-02-01T15:01:25.324Z,49.30
2023-02-01T15:04:06.689Z,51.30
2023-02-01T15:06:51.660Z,51.10
2023-02-01T15:09:39.054Z,50.38
2023-02-01T15:12:13.472Z,49.72
2023-02-01T15:15:05.480Z,49.35
2023-02-01T15:17:35.430Z,47.70
2023-02-01T15:20:17.173Z,46.53
2023-02-01T15:23:20.012Z,45.67
2023-02-01T15:25:48.094Z,46.88
2023-02-01T15:28:18.021Z,48.20
2023-02-01T15:30:59.733Z,49.17
2023-02-01T15:33:30.333Z,50.33
2023-02-01T15:36:07.564Z,50.42
2023-02-01T15:38:41.695Z,49.15
2023-02-01T15:41:17.052Z,49.22
2023-02-01T15:43:48.391Z,50.75
2023-02-01T15:46:22.486Z,48.88
2023-02-01T15:48:54.858Z,49.33
2023-02-01T15:51:29.834Z,52.53
2023-02-01T15:54:02.654Z,51.30
2023-02-01T15:56:39.585Z,49.42
2023-02-01T15:59:18.569Z,52.63
2023-02-01T16:01:47.314Z,53.80
2023-02-01T16:04:22.823Z,52.40
2023-02-01T16:06:59.028Z,51.97
2023-02-01T16:09:40.202Z,53.88
2023-02-01T16:12:43.550Z,52.92
2023-02-01T16:15:11.851Z,54.10
2023-02-01T16:17:39.999Z,52.70
2023-02-01T16:20:08.886Z,54.00
2023-02-01T16:22:36.963Z,54.53
2023-02-01T16:25:05.566Z,54.08
2023-02-01T16:27:33.553Z,55.25
2023-02-01T16:30:01.851Z,52.38
2023-02-01T16:32:31.405Z,51.30
2023-02-01T16:34:59.951Z,51.90
2023-02-01T16:37:29.245Z,51.33
2023-02-01T16:39:57.595Z,51.25
2023-02-01T16:42:25.645Z,50.60
2023-02-01T16:44:53.923Z,51.35
2023-02-01T16:47:24.066Z,52.95
2023-02-01T16:49:53.031Z,51.20
2023-02-01T16:52:23.936Z,52.92
2023-02-01T16:54:54.033Z,50.80
2023-02-01T16:57:27.116Z,52.05
2023-02-01T16:59:55.456Z,51.30
2023-02-01T17:02:25.038Z,52.78
2023-02-01T17:04:53.444Z,53.97
2023-02-01T17:07:21.602Z,54.03
2023-02-01T17:09:49.884Z,53.70
2023-02-01T17:12:27.135Z,53.88
2023-02-01T17:14:55.725Z,54.90
2023-02-01T17:17:37.774Z,52.65
2023-02-01T17:20:07.698Z,55.73
2023-02-01T17:22:35.733Z,54.78
2023-02-01T17:25:07.267Z,56.10
2023-02-01T17:27:35.664Z,52.72
2023-02-01T17:30:04.490Z,55.58
2023-02-01T17:32:32.540Z,54.42
2023-02-01T17:35:01.256Z,56.63
2023-02-01T17:37:32.094Z,56.17
2023-02-01T17:40:01.356Z,57.67
2023-02-01T17:42:30.947Z,52.55
2023-02-01T17:45:02.750Z,53.35
2023-02-01T17:47:30.763Z,56.38
2023-02-01T17:49:59.095Z,85.82
2023-02-01T17:52:27.101Z,100.75
2023-02-01T17:54:55.499Z,79.80
2023-02-01T17:57:23.566Z,69.72
2023-02-01T17:59:51.876Z,70.53
2023-02-01T18:02:23.388Z,75.15
2023-02-01T18:04:52.248Z,72.80
2023-02-01T18:07:20.372Z,69.22
2023-02-01T18:09:48.696Z,68.28
2023-02-01T18:12:23.251Z,65.63
2023-02-01T18:14:51.751Z,64.82
2023-02-01T18:17:20.331Z,69.82
2023-02-01T18:19:48.688Z,76.47
2023-02-01T18:22:24.330Z,69.78
2023-02-01T18:24:52.851Z,66.75
2023-02-01T18:27:20.801Z,65.22
2023-02-01T18:29:49.155Z,61.80
2023-02-01T18:32:17.128Z,67.07
2023-02-01T18:34:45.465Z,66.60
2023-02-01T18:37:13.644Z,60.15
2023-02-01T18:39:42.031Z,62.30
2023-02-01T18:42:11.590Z,58.05
2023-02-01T18:44:39.951Z,62.33
2023-02-01T18:47:08.196Z,64.57
2023-02-01T18:49:37.737Z,61.72
2023-02-01T18:52:06.841Z,58.45
2023-02-01T18:54:35.199Z,61.60
2023-02-01T18:57:04.682Z,59.70
2023-02-01T18:59:35.641Z,58.78
2023-02-01T19:02:04.546Z,60.90
2023-02-01T19:04:34.732Z,57.85
2023-02-01T19:07:05.792Z,60.33
2023-02-01T19:09:36.621Z,55.97
2023-02-01T19:12:05.179Z,56.58
2023-02-01T19:14:34.921Z,58.83
2023-02-01T19:17:02.861Z,59.30
2023-02-01T19:19:31.101Z,57.42
2023-02-01T19:22:01.451Z,55.78
2023-02-01T19:24:30.392Z,57.78
2023-02-01T19:26:59.039Z,54.90
2023-02-01T19:29:27.972Z,57.78
2023-02-01T19:31:56.120Z,57.53
2023-02-01T19:34:26.037Z,57.97
2023-02-01T19:36:55.258Z,55.60
2023-02-01T19:39:25.266Z,62.53
2023-02-01T19:41:53.241Z,63.70
2023-02-01T19:44:21.903Z,63.85
2023-02-01T19:46:50.280Z,62.63
2023-02-01T19:49:18.627Z,67.75
2023-02-01T19:51:48.886Z,62.03
2023-02-01T19:54:17.628Z,55.50
2023-02-01T19:56:45.933Z,57.38
2023-02-01T19:59:15.266Z,60.92
2023-02-01T20:01:46.878Z,58.72
2023-02-01T20:04:18.073Z,57.88
2023-02-01T20:06:49.536Z,58.30
2023-02-01T20:09:22.015Z,63.15
2023-02-01T20:11:50.768Z,64.05
2023-02-01T20:14:19.037Z,71.47
2023-02-01T20:16:47.551Z,66.28
2023-02-01T20:19:16.555Z,70.32
2023-02-01T20:21:44.600Z,69.97
2023-02-01T20:24:17.098Z,68.65
2023-02-01T20:26:46.510Z,70.68
2023-02-01T20:29:19.045Z,66.75
2023-02-01T20:31:47.015Z,70.15
2023-02-01T20:34:16.528Z,69.68
2023-02-01T20:36:44.433Z,66.10
2023-02-01T20:39:15.063Z,66.45
2023-02-01T20:41:43.946Z,65.13
2023-02-01T20:44:12.497Z,61.60
2023-02-01T20:46:40.536Z,60.08
2023-02-01T20:49:08.903Z,60.53
2023-02-01T20:51:36.824Z,58.05
2023-02-01T20:54:05.133Z,60.63
2023-02-01T20:56:33.064Z,61.70
2023-02-01T20:59:04.242Z,59.45
2023-02-01T21:01:32.197Z,61.60
2023-02-01T21:04:00.640Z,61.40
2023-02-01T21:06:28.658Z,63.75
2023-02-01T21:08:59.112Z,62.28
2023-02-01T21:11:27.353Z,60.90
2023-02-01T21:13:55.551Z,64.18
2023-02-01T21:16:23.682Z,61.17
2023-02-01T21:18:55.889Z,60.28
2023-02-01T21:21:26.327Z,57.88
2023-02-01T21:23:57.150Z,57.80
2023-02-01T21:26:27.126Z,60.45
2023-02-01T21:28:56.953Z,60.45
2023-02-01T21:31:26.035Z,59.75
2023-02-01T21:33:56.722Z,63.00
2023-02-01T21:36:25.285Z,61.25
2023-02-01T21:38:55.311Z,59.00
2023-02-01T21:41:43.985Z,64.13
2023-02-01T21:44:14.878Z,66.55
2023-02-01T21:46:44.369Z,66.43
2023-02-01T21:49:15.276Z,66.28
2023-02-01T21:51:43.685Z,64.15
2023-02-01T21:54:12.378Z,76.25
2023-02-01T21:56:41.286Z,67.00
2023-02-01T21:59:13.522Z,63.35
2023-02-01T22:01:42.596Z,61.88
2023-02-01T22:04:11.476Z,65.00
2023-02-01T22:06:46.894Z,63.13
2023-02-01T22:09:23.275Z,61.63
2023-02-01T22:11:53.322Z,59.75
2023-02-01T22:14:22.627Z,61.92
2023-02-01T22:16:53.039Z,58.38
2023-02-01T22:19:22.629Z,53.50
2023-02-01T22:21:50.750Z,58.85
2023-02-01T22:24:22.995Z,53.75
2023-02-01T22:26:51.241Z,51.13
2023-02-01T22:29:23.957Z,52.08
2023-02-01T22:31:51.999Z,48.10
2023-02-01T22:34:22.496Z,45.88
2023-02-01T22:36:50.469Z,47.75
2023-02-01T22:39:18.810Z,45.95
2023-02-01T22:41:46.904Z,46.60
2023-02-01T22:44:15.395Z,50.17
2023-02-01T22:46:43.422Z,47.85
2023-02-01T22:49:11.999Z,47.35
2023-02-01T22:51:40.254Z,46.75
2023-02-01T22:54:21.673Z,46.55
2023-02-01T22:56:50.232Z,46.03
2023-02-01T22:59:18.743Z,46.45
2023-02-01T23:01:46.886Z,47.25
2023-02-01T23:04:16.096Z,47.55
2023-02-01T23:06:44.205Z,46.17
2023-02-01T23:09:19.047Z,44.83
2023-02-01T23:11:47.221Z,45.38
2023-02-01T23:14:16.776Z,49.08
2023-02-01T23:16:46.201Z,43.42
2023-02-01T23:19:14.645Z,48.03
2023-02-01T23:21:43.027Z,46.50
2023-02-01T23:24:11.441Z,44.90
2023-02-01T23:26:40.131Z,44.78
2023-02-01T23:29:16.444Z,45.70
2023-02-01T23:31:44.465Z,43.00
2023-02-01T23:34:12.901Z,45.17
2023-02-01T23:36:40.962Z,48.47
2023-02-01T23:39:09.282Z,43.42
2023-02-01T23:41:37.221Z,43.08
2023-02-01T23:44:05.832Z,44.40
2023-02-01T23:46:39.703Z,45.55
2023-02-01T23:49:09.722Z,45.05
2023-02-01T23:51:37.866Z,46.35
2023-02-01T23:54:07.901Z,44.22
2023-02-01T23:56:39.865Z,41.40
2023-02-01T23:59:14.783Z,42.60
